sensor_id;sensor_type;location;lat;lon;timestamp;temperature;humidity
51825;DHT22;37879;52.986;6.282;2023-02-28T00:00:39;4.60;99.90
51825;DHT22;37879;52.986;6.282;2023-02-28T00:03:08;3.70;99.90
51825;DHT22;37879;52.986;6.282;2023-02-28T00:05:34;3.70;99.90
51825;DHT22;37879;52.986;6.282;2023-02-28T00:07:59;3.70;99.90
51825;DHT22;37879;52.986;6.282;2023-02-28T00:10:28;3.70;99.90
51825;DHT22;37879;52.986;6.282;2023-02-28T00:12:55;3.70;99.90
51825;DHT22;37879;52.986;6.282;2023-02-28T00:15:23;3.70;99.90
51825;DHT22;37879;52.986;6.282;2023-02-28T00:17:49;3.70;99.90
51825;DHT22;37879;52.986;6.282;2023-02-28T00:20:15;3.60;99.90
51825;DHT22;37879;52.986;6.282;2023-02-28T00:22:43;3.60;99.90
51825;DHT22;37879;52.986;6.282;2023-02-28T00:25:11;3.60;99.90
51825;DHT22;37879;52.986;6.282;2023-02-28T00:27:38;3.60;99.90
51825;DHT22;37879;52.986;6.282;2023-02-28T00:30:05;3.60;99.90
51825;DHT22;37879;52.986;6.282;2023-02-28T00:32:31;3.60;99.90
51825;DHT22;37879;52.986;6.282;2023-02-28T00:34:57;3.80;99.90
51825;DHT22;37879;52.986;6.282;2023-02-28T00:37:23;3.60;99.90
51825;DHT22;37879;52.986;6.282;2023-02-28T00:39:48;3.60;99.90
51825;DHT22;37879;52.986;6.282;2023-02-28T00:42:14;3.60;99.90
51825;DHT22;37879;52.986;6.282;2023-02-28T00:44:40;3.50;99.90
51825;DHT22;37879;52.986;6.282;2023-02-28T00:47:06;3.50;99.90
51825;DHT22;37879;52.986;6.282;2023-02-28T00:49:32;3.50;99.90
51825;DHT22;37879;52.986;6.282;2023-02-28T00:51:57;3.50;99.90
51825;DHT22;37879;52.986;6.282;2023-02-28T00:54:24;3.50;99.90
51825;DHT22;37879;52.986;6.282;2023-02-28T00:56:50;3.50;99.90
51825;DHT22;37879;52.986;6.282;2023-02-28T00:59:16;3.50;99.90
51825;DHT22;37879;52.986;6.282;2023-02-28T01:01:43;3.50;99.90
51825;DHT22;37879;52.986;6.282;2023-02-28T01:04:09;3.50;99.90
51825;DHT22;37879;52.986;6.282;2023-02-28T01:06:35;3.50;99.90
51825;DHT22;37879;52.986;6.282;2023-02-28T01:09:02;3.50;99.90
51825;DHT22;37879;52.986;6.282;2023-02-28T01:11:28;3.50;99.90
51825;DHT22;37879;52.986;6.282;2023-02-28T01:13:54;3.80;99.90
51825;DHT22;37879;52.986;6.282;2023-02-28T01:16:19;3.60;99.90
51825;DHT22;37879;52.986;6.282;2023-02-28T01:18:45;3.90;99.90
51825;DHT22;37879;52.986;6.282;2023-02-28T01:21:13;3.50;99.90
51825;DHT22;37879;52.986;6.282;2023-02-28T01:23:40;3.50;99.90
51825;DHT22;37879;52.986;6.282;2023-02-28T01:26:10;3.30;99.90
51825;DHT22;37879;52.986;6.282;2023-02-28T01:28:36;3.20;99.90
51825;DHT22;37879;52.986;6.282;2023-02-28T01:31:02;3.20;99.90
51825;DHT22;37879;52.986;6.282;2023-02-28T01:33:28;3.20;99.90
51825;DHT22;37879;52.986;6.282;2023-02-28T01:36:08;3.30;99.90
51825;DHT22;37879;52.986;6.282;2023-02-28T01:38:35;3.30;99.90
51825;DHT22;37879;52.986;6.282;2023-02-28T01:41:01;3.30;99.90
51825;DHT22;37879;52.986;6.282;2023-02-28T01:43:29;3.30;99.90
51825;DHT22;37879;52.986;6.282;2023-02-28T01:45:56;3.40;99.90
51825;DHT22;37879;52.986;6.282;2023-02-28T01:48:30;3.40;99.90
51825;DHT22;37879;52.986;6.282;2023-02-28T01:51:02;3.40;99.90
51825;DHT22;37879;52.986;6.282;2023-02-28T01:53:34;3.40;99.90
51825;DHT22;37879;52.986;6.282;2023-02-28T01:56:04;3.40;99.90
51825;DHT22;37879;52.986;6.282;2023-02-28T01:58:31;3.40;99.90
51825;DHT22;37879;52.986;6.282;2023-02-28T02:00:57;3.50;99.90
51825;DHT22;37879;52.986;6.282;2023-02-28T02:03:23;3.50;99.90
51825;DHT22;37879;52.986;6.282;2023-02-28T02:05:49;3.50;99.90
51825;DHT22;37879;52.986;6.282;2023-02-28T02:08:21;3.60;99.90
51825;DHT22;37879;52.986;6.282;2023-02-28T02:10:50;3.50;99.90
51825;DHT22;37879;52.986;6.282;2023-02-28T02:13:48;3.50;99.90
51825;DHT22;37879;52.986;6.282;2023-02-28T02:19:08;3.80;99.90
51825;DHT22;37879;52.986;6.282;2023-02-28T02:27:59;3.50;99.90
51825;DHT22;37879;52.986;6.282;2023-02-28T02:33:33;3.50;99.90
51825;DHT22;37879;52.986;6.282;2023-02-28T02:36:26;3.50;99.90
51825;DHT22;37879;52.986;6.282;2023-02-28T02:39:02;3.60;99.90
51825;DHT22;37879;52.986;6.282;2023-02-28T02:41:37;3.60;99.90
51825;DHT22;37879;52.986;6.282;2023-02-28T02:44:17;3.60;99.90
51825;DHT22;37879;52.986;6.282;2023-02-28T02:46:46;3.50;99.90
51825;DHT22;37879;52.986;6.282;2023-02-28T02:49:21;3.50;99.90
51825;DHT22;37879;52.986;6.282;2023-02-28T02:51:48;3.50;99.90
51825;DHT22;37879;52.986;6.282;2023-02-28T02:54:22;3.50;99.90
51825;DHT22;37879;52.986;6.282;2023-02-28T02:56:49;3.50;99.90
51825;DHT22;37879;52.986;6.282;2023-02-28T02:59:20;3.50;99.90
51825;DHT22;37879;52.986;6.282;2023-02-28T03:01:54;4.20;99.90
51825;DHT22;37879;52.986;6.282;2023-02-28T03:04:23;3.40;99.90
51825;DHT22;37879;52.986;6.282;2023-02-28T03:06:51;3.40;99.90
51825;DHT22;37879;52.986;6.282;2023-02-28T03:09:24;3.40;99.90
51825;DHT22;37879;52.986;6.282;2023-02-28T03:11:54;3.40;99.90
51825;DHT22;37879;52.986;6.282;2023-02-28T03:20:04;3.30;99.90
51825;DHT22;37879;52.986;6.282;2023-02-28T03:25:27;3.30;99.90
51825;DHT22;37879;52.986;6.282;2023-02-28T03:30:38;3.20;99.90
51825;DHT22;37879;52.986;6.282;2023-02-28T03:33:17;3.20;99.90
51825;DHT22;37879;52.986;6.282;2023-02-28T03:35:54;3.20;99.90
51825;DHT22;37879;52.986;6.282;2023-02-28T03:44:07;3.10;99.90
51825;DHT22;37879;52.986;6.282;2023-02-28T03:46:38;3.10;99.90
51825;DHT22;37879;52.986;6.282;2023-02-28T03:49:16;3.10;99.90
51825;DHT22;37879;52.986;6.282;2023-02-28T03:51:43;3.10;99.90
51825;DHT22;37879;52.986;6.282;2023-02-28T03:54:27;3.20;99.90
51825;DHT22;37879;52.986;6.282;2023-02-28T03:57:12;3.20;99.90
51825;DHT22;37879;52.986;6.282;2023-02-28T03:59:47;3.20;99.90
51825;DHT22;37879;52.986;6.282;2023-02-28T04:02:13;3.10;99.90
51825;DHT22;37879;52.986;6.282;2023-02-28T04:04:39;3.10;99.90
51825;DHT22;37879;52.986;6.282;2023-02-28T04:07:14;3.10;99.90
51825;DHT22;37879;52.986;6.282;2023-02-28T04:09:40;3.30;99.90
51825;DHT22;37879;52.986;6.282;2023-02-28T04:12:06;3.00;99.90
51825;DHT22;37879;52.986;6.282;2023-02-28T04:14:32;3.00;99.90
51825;DHT22;37879;52.986;6.282;2023-02-28T04:16:58;3.00;99.90
51825;DHT22;37879;52.986;6.282;2023-02-28T04:19:23;2.90;99.90
51825;DHT22;37879;52.986;6.282;2023-02-28T04:21:50;3.00;99.90
51825;DHT22;37879;52.986;6.282;2023-02-28T04:24:20;2.90;99.90
51825;DHT22;37879;52.986;6.282;2023-02-28T04:26:48;2.90;99.90
51825;DHT22;37879;52.986;6.282;2023-02-28T04:29:28;2.90;99.90
51825;DHT22;37879;52.986;6.282;2023-02-28T04:31:54;2.80;99.90
51825;DHT22;37879;52.986;6.282;2023-02-28T04:34:23;2.80;99.90
51825;DHT22;37879;52.986;6.282;2023-02-28T04:36:50;2.80;99.90
51825;DHT22;37879;52.986;6.282;2023-02-28T04:39:16;2.80;99.90
51825;DHT22;37879;52.986;6.282;2023-02-28T04:41:44;2.70;99.90
51825;DHT22;37879;52.986;6.282;2023-02-28T04:44:10;2.70;99.90
51825;DHT22;37879;52.986;6.282;2023-02-28T04:46:36;3.50;99.90
51825;DHT22;37879;52.986;6.282;2023-02-28T04:49:02;2.70;99.90
51825;DHT22;37879;52.986;6.282;2023-02-28T04:51:28;2.70;99.90
51825;DHT22;37879;52.986;6.282;2023-02-28T04:53:54;2.70;99.90
51825;DHT22;37879;52.986;6.282;2023-02-28T04:56:20;2.70;99.90
51825;DHT22;37879;52.986;6.282;2023-02-28T04:58:47;3.10;99.90
51825;DHT22;37879;52.986;6.282;2023-02-28T05:03:47;2.70;99.90
51825;DHT22;37879;52.986;6.282;2023-02-28T05:06:14;2.60;99.90
51825;DHT22;37879;52.986;6.282;2023-02-28T05:08:40;2.60;99.90
51825;DHT22;37879;52.986;6.282;2023-02-28T05:11:27;2.60;99.90
51825;DHT22;37879;52.986;6.282;2023-02-28T05:13:54;0.80;99.90
51825;DHT22;37879;52.986;6.282;2023-02-28T05:16:20;2.60;99.90
51825;DHT22;37879;52.986;6.282;2023-02-28T05:18:46;2.50;99.90
51825;DHT22;37879;52.986;6.282;2023-02-28T05:21:33;2.50;99.90
51825;DHT22;37879;52.986;6.282;2023-02-28T05:24:02;2.50;99.90
51825;DHT22;37879;52.986;6.282;2023-02-28T05:26:29;2.50;99.90
51825;DHT22;37879;52.986;6.282;2023-02-28T05:28:56;3.20;99.90
51825;DHT22;37879;52.986;6.282;2023-02-28T05:31:21;2.40;99.90
51825;DHT22;37879;52.986;6.282;2023-02-28T05:33:47;2.30;99.90
51825;DHT22;37879;52.986;6.282;2023-02-28T05:36:13;2.30;99.90
51825;DHT22;37879;52.986;6.282;2023-02-28T05:38:39;2.30;99.90
51825;DHT22;37879;52.986;6.282;2023-02-28T05:41:09;3.30;99.90
51825;DHT22;37879;52.986;6.282;2023-02-28T05:43:36;2.40;99.90
51825;DHT22;37879;52.986;6.282;2023-02-28T05:46:07;2.40;99.90
51825;DHT22;37879;52.986;6.282;2023-02-28T05:48:34;2.50;99.90
51825;DHT22;37879;52.986;6.282;2023-02-28T05:51:00;2.20;99.90
51825;DHT22;37879;52.986;6.282;2023-02-28T05:53:26;2.20;99.90
51825;DHT22;37879;52.986;6.282;2023-02-28T05:55:52;2.20;99.90
51825;DHT22;37879;52.986;6.282;2023-02-28T05:58:17;2.10;99.90
51825;DHT22;37879;52.986;6.282;2023-02-28T06:00:44;2.10;99.90
51825;DHT22;37879;52.986;6.282;2023-02-28T06:03:09;2.00;99.90
51825;DHT22;37879;52.986;6.282;2023-02-28T06:05:35;2.00;99.90
51825;DHT22;37879;52.986;6.282;2023-02-28T06:08:00;2.00;99.90
51825;DHT22;37879;52.986;6.282;2023-02-28T06:10:26;2.00;99.90
51825;DHT22;37879;52.986;6.282;2023-02-28T06:12:52;2.00;99.90
51825;DHT22;37879;52.986;6.282;2023-02-28T06:15:17;2.00;99.90
51825;DHT22;37879;52.986;6.282;2023-02-28T06:17:44;2.00;99.90
51825;DHT22;37879;52.986;6.282;2023-02-28T06:20:11;2.00;99.90
51825;DHT22;37879;52.986;6.282;2023-02-28T06:22:39;2.00;99.90
51825;DHT22;37879;52.986;6.282;2023-02-28T06:25:05;1.90;99.90
51825;DHT22;37879;52.986;6.282;2023-02-28T06:27:32;2.00;99.90
51825;DHT22;37879;52.986;6.282;2023-02-28T06:29:58;1.90;99.90
51825;DHT22;37879;52.986;6.282;2023-02-28T06:32:24;1.90;99.90
51825;DHT22;37879;52.986;6.282;2023-02-28T06:34:50;1.90;99.90
51825;DHT22;37879;52.986;6.282;2023-02-28T06:37:16;1.90;99.90
51825;DHT22;37879;52.986;6.282;2023-02-28T06:39:42;1.90;99.90
51825;DHT22;37879;52.986;6.282;2023-02-28T06:42:08;1.80;99.90
51825;DHT22;37879;52.986;6.282;2023-02-28T06:44:34;1.80;99.90
51825;DHT22;37879;52.986;6.282;2023-02-28T06:47:04;1.80;99.90
51825;DHT22;37879;52.986;6.282;2023-02-28T06:49:31;1.80;99.90
51825;DHT22;37879;52.986;6.282;2023-02-28T06:51:58;1.80;99.90
51825;DHT22;37879;52.986;6.282;2023-02-28T06:54:23;1.70;99.90
51825;DHT22;37879;52.986;6.282;2023-02-28T06:56:49;1.70;99.90
51825;DHT22;37879;52.986;6.282;2023-02-28T06:59:16;2.90;99.90
51825;DHT22;37879;52.986;6.282;2023-02-28T07:01:42;1.70;99.90
51825;DHT22;37879;52.986;6.282;2023-02-28T07:04:08;1.80;99.90
51825;DHT22;37879;52.986;6.282;2023-02-28T07:06:33;1.70;99.90
51825;DHT22;37879;52.986;6.282;2023-02-28T07:08:59;1.80;99.90
51825;DHT22;37879;52.986;6.282;2023-02-28T07:11:26;1.80;99.90
51825;DHT22;37879;52.986;6.282;2023-02-28T07:13:54;1.70;99.90
51825;DHT22;37879;52.986;6.282;2023-02-28T07:16:21;1.70;99.90
51825;DHT22;37879;52.986;6.282;2023-02-28T07:18:47;1.70;99.90
51825;DHT22;37879;52.986;6.282;2023-02-28T07:21:14;1.60;99.90
51825;DHT22;37879;52.986;6.282;2023-02-28T07:23:39;1.60;99.90
51825;DHT22;37879;52.986;6.282;2023-02-28T07:26:07;1.60;99.90
51825;DHT22;37879;52.986;6.282;2023-02-28T07:28:36;1.70;99.90
51825;DHT22;37879;52.986;6.282;2023-02-28T07:31:05;1.70;99.90
51825;DHT22;37879;52.986;6.282;2023-02-28T07:33:32;1.70;99.90
51825;DHT22;37879;52.986;6.282;2023-02-28T07:36:09;1.70;99.90
51825;DHT22;37879;52.986;6.282;2023-02-28T07:38:38;1.80;99.90
51825;DHT22;37879;52.986;6.282;2023-02-28T07:41:04;1.80;99.90
51825;DHT22;37879;52.986;6.282;2023-02-28T07:43:31;1.80;99.90
51825;DHT22;37879;52.986;6.282;2023-02-28T07:46:02;1.90;99.90
51825;DHT22;37879;52.986;6.282;2023-02-28T07:48:28;2.00;99.90
51825;DHT22;37879;52.986;6.282;2023-02-28T07:50:57;2.00;99.90
51825;DHT22;37879;52.986;6.282;2023-02-28T07:53:24;2.00;99.90
51825;DHT22;37879;52.986;6.282;2023-02-28T07:55:49;2.00;99.90
51825;DHT22;37879;52.986;6.282;2023-02-28T07:58:15;2.10;99.90
51825;DHT22;37879;52.986;6.282;2023-02-28T08:00:41;2.10;99.90
51825;DHT22;37879;52.986;6.282;2023-02-28T08:03:08;2.10;99.90
51825;DHT22;37879;52.986;6.282;2023-02-28T08:05:38;2.10;99.90
51825;DHT22;37879;52.986;6.282;2023-02-28T08:08:05;2.10;99.90
51825;DHT22;37879;52.986;6.282;2023-02-28T08:10:32;2.10;99.90
51825;DHT22;37879;52.986;6.282;2023-02-28T08:12:57;2.10;99.90
51825;DHT22;37879;52.986;6.282;2023-02-28T08:15:23;2.20;99.90
51825;DHT22;37879;52.986;6.282;2023-02-28T08:17:48;2.20;99.90
51825;DHT22;37879;52.986;6.282;2023-02-28T08:20:14;2.20;99.90
51825;DHT22;37879;52.986;6.282;2023-02-28T08:22:39;2.30;99.90
51825;DHT22;37879;52.986;6.282;2023-02-28T08:25:06;2.30;99.90
51825;DHT22;37879;52.986;6.282;2023-02-28T08:27:32;2.40;99.90
51825;DHT22;37879;52.986;6.282;2023-02-28T08:29:58;2.40;99.90
51825;DHT22;37879;52.986;6.282;2023-02-28T08:32:24;2.50;99.90
51825;DHT22;37879;52.986;6.282;2023-02-28T08:34:49;2.60;99.90
51825;DHT22;37879;52.986;6.282;2023-02-28T08:37:15;2.60;99.90
51825;DHT22;37879;52.986;6.282;2023-02-28T08:39:41;2.60;99.90
51825;DHT22;37879;52.986;6.282;2023-02-28T08:42:06;2.60;99.90
51825;DHT22;37879;52.986;6.282;2023-02-28T08:44:32;2.60;99.90
51825;DHT22;37879;52.986;6.282;2023-02-28T08:46:58;2.60;99.90
51825;DHT22;37879;52.986;6.282;2023-02-28T08:49:23;2.60;99.90
51825;DHT22;37879;52.986;6.282;2023-02-28T08:51:49;3.50;99.90
51825;DHT22;37879;52.986;6.282;2023-02-28T08:54:14;2.60;99.90
51825;DHT22;37879;52.986;6.282;2023-02-28T08:56:45;2.70;99.90
51825;DHT22;37879;52.986;6.282;2023-02-28T08:59:11;2.80;99.90
51825;DHT22;37879;52.986;6.282;2023-02-28T09:01:37;2.90;99.90
51825;DHT22;37879;52.986;6.282;2023-02-28T09:04:03;2.90;99.90
51825;DHT22;37879;52.986;6.282;2023-02-28T09:06:29;3.10;99.90
51825;DHT22;37879;52.986;6.282;2023-02-28T09:08:58;3.10;99.90
51825;DHT22;37879;52.986;6.282;2023-02-28T09:11:25;3.10;99.90
51825;DHT22;37879;52.986;6.282;2023-02-28T09:13:50;3.20;99.90
51825;DHT22;37879;52.986;6.282;2023-02-28T09:16:17;3.10;99.90
51825;DHT22;37879;52.986;6.282;2023-02-28T09:18:43;3.20;99.90
51825;DHT22;37879;52.986;6.282;2023-02-28T09:21:12;3.20;99.90
51825;DHT22;37879;52.986;6.282;2023-02-28T09:23:40;3.20;99.90
51825;DHT22;37879;52.986;6.282;2023-02-28T09:26:07;3.40;99.90
51825;DHT22;37879;52.986;6.282;2023-02-28T09:28:32;3.30;99.90
51825;DHT22;37879;52.986;6.282;2023-02-28T09:30:58;3.40;99.90
51825;DHT22;37879;52.986;6.282;2023-02-28T09:33:25;3.30;99.90
51825;DHT22;37879;52.986;6.282;2023-02-28T09:35:56;3.30;99.90
51825;DHT22;37879;52.986;6.282;2023-02-28T09:38:22;3.20;99.90
51825;DHT22;37879;52.986;6.282;2023-02-28T09:40:57;3.10;99.90
51825;DHT22;37879;52.986;6.282;2023-02-28T09:43:29;3.10;99.90
51825;DHT22;37879;52.986;6.282;2023-02-28T09:46:02;3.00;99.90
51825;DHT22;37879;52.986;6.282;2023-02-28T09:48:39;3.00;99.90
51825;DHT22;37879;52.986;6.282;2023-02-28T09:51:37;3.10;99.90
51825;DHT22;37879;52.986;6.282;2023-02-28T09:54:00;3.10;99.90
51825;DHT22;37879;52.986;6.282;2023-02-28T09:56:38;3.10;99.90
51825;DHT22;37879;52.986;6.282;2023-02-28T10:04:59;3.30;99.90
51825;DHT22;37879;52.986;6.282;2023-02-28T10:07:56;3.30;99.90
51825;DHT22;37879;52.986;6.282;2023-02-28T10:13:00;3.40;99.90
51825;DHT22;37879;52.986;6.282;2023-02-28T10:15:30;3.40;99.90
51825;DHT22;37879;52.986;6.282;2023-02-28T10:18:00;3.50;99.90
51825;DHT22;37879;52.986;6.282;2023-02-28T10:20:28;3.50;99.90
51825;DHT22;37879;52.986;6.282;2023-02-28T10:23:14;3.60;99.90
51825;DHT22;37879;52.986;6.282;2023-02-28T10:25:45;3.70;99.90
51825;DHT22;37879;52.986;6.282;2023-02-28T10:28:17;3.90;99.90
51825;DHT22;37879;52.986;6.282;2023-02-28T10:30:48;4.00;99.90
51825;DHT22;37879;52.986;6.282;2023-02-28T10:35:44;4.20;99.90
51825;DHT22;37879;52.986;6.282;2023-02-28T10:38:20;4.20;99.90
51825;DHT22;37879;52.986;6.282;2023-02-28T10:40:46;4.20;99.90
51825;DHT22;37879;52.986;6.282;2023-02-28T10:45:57;4.40;99.90
51825;DHT22;37879;52.986;6.282;2023-02-28T10:48:44;4.40;99.90
51825;DHT22;37879;52.986;6.282;2023-02-28T10:51:12;4.50;99.90
51825;DHT22;37879;52.986;6.282;2023-02-28T10:53:53;4.50;99.90
51825;DHT22;37879;52.986;6.282;2023-02-28T10:56:22;4.50;99.90
51825;DHT22;37879;52.986;6.282;2023-02-28T10:59:26;5.20;99.90
51825;DHT22;37879;52.986;6.282;2023-02-28T11:01:52;4.50;99.90
51825;DHT22;37879;52.986;6.282;2023-02-28T11:07:21;4.60;99.90
51825;DHT22;37879;52.986;6.282;2023-02-28T11:09:50;4.60;99.90
51825;DHT22;37879;52.986;6.282;2023-02-28T11:12:42;4.80;99.90
51825;DHT22;37879;52.986;6.282;2023-02-28T11:15:26;5.00;99.90
51825;DHT22;37879;52.986;6.282;2023-02-28T11:18:17;4.90;99.90
51825;DHT22;37879;52.986;6.282;2023-02-28T11:20:48;4.90;99.90
51825;DHT22;37879;52.986;6.282;2023-02-28T11:23:16;5.00;99.90
51825;DHT22;37879;52.986;6.282;2023-02-28T11:25:50;5.00;99.90
51825;DHT22;37879;52.986;6.282;2023-02-28T11:28:27;5.10;99.90
51825;DHT22;37879;52.986;6.282;2023-02-28T11:36:28;5.40;99.90
51825;DHT22;37879;52.986;6.282;2023-02-28T11:39:07;5.70;99.90
51825;DHT22;37879;52.986;6.282;2023-02-28T11:44:33;6.50;99.90
51825;DHT22;37879;52.986;6.282;2023-02-28T11:47:11;6.10;99.90
51825;DHT22;37879;52.986;6.282;2023-02-28T11:49:52;5.90;99.90
51825;DHT22;37879;52.986;6.282;2023-02-28T11:55:35;5.90;99.90
51825;DHT22;37879;52.986;6.282;2023-02-28T11:58:26;6.00;99.90
51825;DHT22;37879;52.986;6.282;2023-02-28T12:01:07;6.00;99.90
51825;DHT22;37879;52.986;6.282;2023-02-28T12:03:54;6.10;99.90
51825;DHT22;37879;52.986;6.282;2023-02-28T12:06:28;6.10;99.90
51825;DHT22;37879;52.986;6.282;2023-02-28T12:11:36;6.20;99.90
51825;DHT22;37879;52.986;6.282;2023-02-28T12:17:20;6.20;99.90
51825;DHT22;37879;52.986;6.282;2023-02-28T12:28:31;6.30;99.90
51825;DHT22;37879;52.986;6.282;2023-02-28T12:31:00;6.30;99.90
51825;DHT22;37879;52.986;6.282;2023-02-28T12:33:31;6.30;99.90
51825;DHT22;37879;52.986;6.282;2023-02-28T12:36:03;6.50;99.90
51825;DHT22;37879;52.986;6.282;2023-02-28T12:38:38;7.10;99.90
51825;DHT22;37879;52.986;6.282;2023-02-28T12:43:42;6.80;99.90
51825;DHT22;37879;52.986;6.282;2023-02-28T12:48:40;6.70;99.90
51825;DHT22;37879;52.986;6.282;2023-02-28T12:51:08;6.60;99.90
51825;DHT22;37879;52.986;6.282;2023-02-28T12:54:00;6.70;99.90
51825;DHT22;37879;52.986;6.282;2023-02-28T13:00:03;6.90;99.90
51825;DHT22;37879;52.986;6.282;2023-02-28T13:10:49;7.40;99.90
51825;DHT22;37879;52.986;6.282;2023-02-28T13:13:22;7.50;99.90
51825;DHT22;37879;52.986;6.282;2023-02-28T13:16:09;8.00;99.90
51825;DHT22;37879;52.986;6.282;2023-02-28T13:18:39;7.40;99.90
51825;DHT22;37879;52.986;6.282;2023-02-28T13:21:21;7.30;99.90
51825;DHT22;37879;52.986;6.282;2023-02-28T13:39:58;7.20;99.90
51825;DHT22;37879;52.986;6.282;2023-02-28T13:42:34;7.20;99.90
51825;DHT22;37879;52.986;6.282;2023-02-28T13:47:39;7.40;99.90
51825;DHT22;37879;52.986;6.282;2023-02-28T13:55:24;8.60;99.90
51825;DHT22;37879;52.986;6.282;2023-02-28T14:06:16;7.00;99.90
51825;DHT22;37879;52.986;6.282;2023-02-28T14:11:41;6.90;99.90
51825;DHT22;37879;52.986;6.282;2023-02-28T14:14:09;6.90;99.90
51825;DHT22;37879;52.986;6.282;2023-02-28T14:16:46;7.10;99.90
51825;DHT22;37879;52.986;6.282;2023-02-28T14:19:19;7.20;99.90
51825;DHT22;37879;52.986;6.282;2023-02-28T14:33:35;7.40;99.90
51825;DHT22;37879;52.986;6.282;2023-02-28T14:36:24;7.50;99.90
51825;DHT22;37879;52.986;6.282;2023-02-28T14:38:54;7.60;99.90
51825;DHT22;37879;52.986;6.282;2023-02-28T14:41:32;7.60;99.90
51825;DHT22;37879;52.986;6.282;2023-02-28T14:44:02;7.50;99.90
51825;DHT22;37879;52.986;6.282;2023-02-28T14:46:39;7.90;99.90
51825;DHT22;37879;52.986;6.282;2023-02-28T14:49:10;7.40;99.90
51825;DHT22;37879;52.986;6.282;2023-02-28T14:51:37;7.20;99.90
51825;DHT22;37879;52.986;6.282;2023-02-28T14:54:03;7.10;99.90
51825;DHT22;37879;52.986;6.282;2023-02-28T14:56:36;7.00;99.90
51825;DHT22;37879;52.986;6.282;2023-02-28T14:59:03;7.50;99.90
51825;DHT22;37879;52.986;6.282;2023-02-28T15:01:29;6.90;99.90
51825;DHT22;37879;52.986;6.282;2023-02-28T15:04:03;6.80;99.90
51825;DHT22;37879;52.986;6.282;2023-02-28T15:06:30;6.80;99.90
51825;DHT22;37879;52.986;6.282;2023-02-28T15:09:16;6.80;99.90
51825;DHT22;37879;52.986;6.282;2023-02-28T15:11:47;6.80;99.90
51825;DHT22;37879;52.986;6.282;2023-02-28T15:14:17;6.80;99.90
51825;DHT22;37879;52.986;6.282;2023-02-28T15:16:46;6.80;99.90
51825;DHT22;37879;52.986;6.282;2023-02-28T15:21:43;6.80;99.90
51825;DHT22;37879;52.986;6.282;2023-02-28T15:24:16;6.70;99.90
51825;DHT22;37879;52.986;6.282;2023-02-28T15:26:55;6.70;99.90
51825;DHT22;37879;52.986;6.282;2023-02-28T15:29:23;6.60;99.90
51825;DHT22;37879;52.986;6.282;2023-02-28T15:32:05;6.60;99.90
51825;DHT22;37879;52.986;6.282;2023-02-28T15:34:43;6.60;99.90
51825;DHT22;37879;52.986;6.282;2023-02-28T15:39:55;6.40;99.90
51825;DHT22;37879;52.986;6.282;2023-02-28T15:42:30;6.30;99.90
51825;DHT22;37879;52.986;6.282;2023-02-28T15:44:57;6.30;99.90
51825;DHT22;37879;52.986;6.282;2023-02-28T15:47:35;6.20;99.90
51825;DHT22;37879;52.986;6.282;2023-02-28T15:50:06;6.30;99.90
51825;DHT22;37879;52.986;6.282;2023-02-28T15:52:40;6.20;99.90
51825;DHT22;37879;52.986;6.282;2023-02-28T15:55:28;6.20;99.90
51825;DHT22;37879;52.986;6.282;2023-02-28T15:57:57;7.00;99.90
51825;DHT22;37879;52.986;6.282;2023-02-28T16:00:28;6.20;99.90
51825;DHT22;37879;52.986;6.282;2023-02-28T16:02:54;6.40;99.90
51825;DHT22;37879;52.986;6.282;2023-02-28T16:05:29;6.20;99.90
51825;DHT22;37879;52.986;6.282;2023-02-28T16:07:59;6.20;99.90
51825;DHT22;37879;52.986;6.282;2023-02-28T16:10:27;6.30;99.90
51825;DHT22;37879;52.986;6.282;2023-02-28T16:12:55;6.30;99.90
51825;DHT22;37879;52.986;6.282;2023-02-28T16:15:24;6.30;99.90
51825;DHT22;37879;52.986;6.282;2023-02-28T16:17:52;6.30;99.90
51825;DHT22;37879;52.986;6.282;2023-02-28T16:20:28;6.30;99.90
51825;DHT22;37879;52.986;6.282;2023-02-28T16:22:54;6.30;99.90
51825;DHT22;37879;52.986;6.282;2023-02-28T16:25:33;6.20;99.90
51825;DHT22;37879;52.986;6.282;2023-02-28T16:27:59;6.20;99.90
51825;DHT22;37879;52.986;6.282;2023-02-28T16:30:27;6.10;99.90
51825;DHT22;37879;52.986;6.282;2023-02-28T16:32:56;6.10;99.90
51825;DHT22;37879;52.986;6.282;2023-02-28T16:35:23;6.00;99.90
51825;DHT22;37879;52.986;6.282;2023-02-28T16:37:50;6.00;99.90
51825;DHT22;37879;52.986;6.282;2023-02-28T16:40:18;5.90;99.90
51825;DHT22;37879;52.986;6.282;2023-02-28T16:42:47;5.90;99.90
51825;DHT22;37879;52.986;6.282;2023-02-28T16:45:24;5.80;99.90
51825;DHT22;37879;52.986;6.282;2023-02-28T16:47:50;5.70;99.90
51825;DHT22;37879;52.986;6.282;2023-02-28T16:50:24;5.70;99.90
51825;DHT22;37879;52.986;6.282;2023-02-28T16:52:50;5.70;99.90
51825;DHT22;37879;52.986;6.282;2023-02-28T16:55:21;5.60;99.90
51825;DHT22;37879;52.986;6.282;2023-02-28T16:57:52;5.80;99.90
51825;DHT22;37879;52.986;6.282;2023-02-28T17:00:18;5.50;99.90
51825;DHT22;37879;52.986;6.282;2023-02-28T17:02:44;5.40;99.90
51825;DHT22;37879;52.986;6.282;2023-02-28T17:05:13;5.40;99.90
51825;DHT22;37879;52.986;6.282;2023-02-28T17:07:39;5.30;99.90
51825;DHT22;37879;52.986;6.282;2023-02-28T17:12:43;5.20;99.90
51825;DHT22;37879;52.986;6.282;2023-02-28T17:15:10;5.10;99.90
51825;DHT22;37879;52.986;6.282;2023-02-28T17:17:36;5.10;99.90
51825;DHT22;37879;52.986;6.282;2023-02-28T17:20:03;5.10;99.90
51825;DHT22;37879;52.986;6.282;2023-02-28T17:22:30;5.10;99.90
51825;DHT22;37879;52.986;6.282;2023-02-28T17:24:55;5.00;99.90
51825;DHT22;37879;52.986;6.282;2023-02-28T17:27:21;4.90;99.90
51825;DHT22;37879;52.986;6.282;2023-02-28T17:29:47;4.80;99.90
51825;DHT22;37879;52.986;6.282;2023-02-28T17:32:13;4.80;99.90
51825;DHT22;37879;52.986;6.282;2023-02-28T17:34:38;5.30;99.90
51825;DHT22;37879;52.986;6.282;2023-02-28T17:37:04;4.70;99.90
51825;DHT22;37879;52.986;6.282;2023-02-28T17:39:30;4.60;99.90
51825;DHT22;37879;52.986;6.282;2023-02-28T17:41:56;4.50;99.90
51825;DHT22;37879;52.986;6.282;2023-02-28T17:44:23;4.50;99.90
51825;DHT22;37879;52.986;6.282;2023-02-28T17:46:50;4.60;99.90
51825;DHT22;37879;52.986;6.282;2023-02-28T17:49:17;4.50;99.90
51825;DHT22;37879;52.986;6.282;2023-02-28T17:51:43;4.30;99.90
51825;DHT22;37879;52.986;6.282;2023-02-28T17:54:08;4.30;99.90
51825;DHT22;37879;52.986;6.282;2023-02-28T17:56:34;4.20;99.90
51825;DHT22;37879;52.986;6.282;2023-02-28T17:59:00;4.10;99.90
51825;DHT22;37879;52.986;6.282;2023-02-28T18:01:26;4.10;99.90
51825;DHT22;37879;52.986;6.282;2023-02-28T18:03:53;4.00;99.90
51825;DHT22;37879;52.986;6.282;2023-02-28T18:06:23;4.00;99.90
51825;DHT22;37879;52.986;6.282;2023-02-28T18:08:50;3.90;99.90
51825;DHT22;37879;52.986;6.282;2023-02-28T18:11:20;2.90;99.90
51825;DHT22;37879;52.986;6.282;2023-02-28T18:13:48;3.80;99.90
51825;DHT22;37879;52.986;6.282;2023-02-28T18:16:14;3.80;99.90
51825;DHT22;37879;52.986;6.282;2023-02-28T18:18:40;3.70;99.90
51825;DHT22;37879;52.986;6.282;2023-02-28T18:21:08;3.60;99.90
51825;DHT22;37879;52.986;6.282;2023-02-28T18:23:34;4.00;99.90
51825;DHT22;37879;52.986;6.282;2023-02-28T18:26:00;3.50;99.90